This is the latest recevied weather packets stored in our database for station/object PY1LEO-13. If no packets are shown the sender has not sent any weather packets the latest 10 day(s).
| Time | Temp. | Humidity | Pressure | Rain* | Wind** | Luminosity | Snow |
|---|---|---|---|---|---|---|---|
| 1777999565 | 29.44° C | 53% | 1019.5 hPa | - | - | - | - |
| 1777999266 | 28.89° C | 55% | 1019.5 hPa | - | - | - | - |
| 1777998965 | 28.89° C | 55% | 1019.5 hPa | - | - | - | - |
| 1777998665 | 29.44° C | 54% | 1019.5 hPa | - | - | - | - |
| 1777998365 | 29.44° C | 54% | 1019.5 hPa | - | - | - | - |
| 1777998065 | 28.89° C | 55% | 1019.6 hPa | - | - | - | - |
| 1777997765 | 28.89° C | 54% | 1019.6 hPa | - | - | - | - |
| 1777997466 | 28.89° C | 54% | 1019.7 hPa | - | - | - | - |
| 1777997165 | 28.89° C | 54% | 1019.8 hPa | - | - | - | - |
| 1777996865 | 28.89° C | 53% | 1019.9 hPa | - | - | - | - |
| 1777996565 | 28.89° C | 52% | 1019.9 hPa | - | - | - | - |
| 1777996265 | 28.89° C | 53% | 1020 hPa | - | - | - | - |
| 1777995965 | 29.44° C | 52% | 1020 hPa | - | - | - | - |
| 1777995665 | 28.89° C | 53% | 1020 hPa | - | - | - | - |
| 1777995365 | 29.44° C | 52% | 1020 hPa | - | - | - | - |
| 1777995065 | 28.89° C | 54% | 1020 hPa | - | - | - | - |
| 1777994765 | 28.89° C | 53% | 1020 hPa | - | - | - | - |
| 1777994465 | 29.44° C | 54% | 1020.1 hPa | - | - | - | - |
| 1777994165 | 29.44° C | 56% | 1020 hPa | - | - | - | - |
| 1777993865 | 30° C | 53% | 1020.1 hPa | - | - | - | - |
| 1777993565 | 29.44° C | 54% | 1020.1 hPa | - | - | - | - |
| 1777993266 | 30° C | 53% | 1020.2 hPa | - | - | - | - |
| 1777992965 | 30° C | 53% | 1020.2 hPa | - | - | - | - |
| 1777992665 | 28.89° C | 56% | 1020.3 hPa | - | - | - | - |
| 1777992365 | 29.44° C | 54% | 1020.4 hPa | - | - | - | - |
* Rain since midnight (hover to see other rain measurements)
** Current wind speed in m/s (hover to see current wind gust speed)